Time;durP1;ratioP1;P1;durP2;ratioP2;P2;SDS_P1;SDS_P2;PMS_P1;PMS_P2;Temp;Humidity;BMP_temperature;BMP_pressure;BME280_temperature;BME280_humidity;BME280_pressure;Samples;Min_cycle;Max_cycle;Signal;HPM_P1;HPM_P2
2022/01/30 00:00:01;;;;;;;17.20;6.30;;;7.50;99.90;;;;;;4972292;28;20591;-76
2022/01/30 00:02:28;;;;;;;21.53;5.10;;;7.50;99.90;;;;;;4972928;28;20558;-78
2022/01/30 00:04:55;;;;;;;18.70;5.87;;;7.50;99.90;;;;;;4973342;28;20456;-76
2022/01/30 00:07:22;;;;;;;21.97;5.20;;;7.50;99.90;;;;;;4973351;28;20452;-77
2022/01/30 00:09:49;;;;;;;17.83;4.97;;;7.50;99.90;;;;;;4972963;28;20455;-76
2022/01/30 00:12:18;;;;;;;22.60;4.57;;;7.50;99.90;;;;;;4992400;23;20494;-94
2022/01/30 00:14:52;;;;;;;23.73;5.27;;;7.50;99.90;;;;;;5023412;28;20455;-94
2022/01/30 00:17:24;;;;;;;16.10;4.63;;;7.50;99.90;;;;;;5027973;28;20493;-94
2022/01/30 00:19:57;;;;;;;12.77;3.60;;;7.50;99.90;;;;;;5037859;28;20505;-96
2022/01/30 00:22:37;;;;;;;20.90;4.07;;;7.40;99.90;;;;;;5018898;28;20464;-94
2022/01/30 00:25:11;;;;;;;21.23;4.93;;;7.40;99.90;;;;;;4994948;28;20451;-94
2022/01/30 00:27:48;;;;;;;12.13;3.87;;;7.40;99.90;;;;;;4994139;28;20559;-95
2022/01/30 00:30:17;;;;;;;23.50;5.23;;;7.40;99.90;;;;;;5007332;28;20487;-96
2022/01/30 00:32:45;;;;;;;21.27;4.97;;;7.30;99.90;;;;;;5006494;28;20519;-96
2022/01/30 00:35:12;;;;;;;19.53;5.20;;;7.30;99.90;;;;;;4998699;28;20448;-96
2022/01/30 00:37:41;;;;;;;9.17;3.47;;;7.30;99.90;;;;;;5004308;28;20427;-96
2022/01/30 00:40:10;;;;;;;17.23;3.57;;;7.40;99.90;;;;;;5012656;28;20498;-95
2022/01/30 00:42:37;;;;;;;22.47;4.20;;;7.20;99.90;;;;;;5011339;28;20450;-96
2022/01/30 00:45:04;;;;;;;13.97;4.30;;;7.20;99.90;;;;;;4997967;28;20459;-96
2022/01/30 00:47:32;;;;;;;13.40;3.60;;;7.30;99.90;;;;;;5005098;28;20443;-95
2022/01/30 00:49:59;;;;;;;7.70;3.00;;;7.20;99.90;;;;;;5002267;28;20546;-95
2022/01/30 00:52:26;;;;;;;15.77;3.00;;;7.20;99.90;;;;;;4998214;28;20443;-96
2022/01/30 00:54:53;;;;;;;10.93;3.60;;;7.20;99.90;;;;;;5013250;28;20490;-95
2022/01/30 00:57:19;;;;;;;14.23;4.03;;;7.20;99.90;;;;;;5017234;28;20432;-95
2022/01/30 01:02:27;;;;;;;16.17;4.03;;;7.10;99.90;;;;;;5127275;27;20503;-76
2022/01/30 01:04:53;;;;;;;17.23;5.00;;;7.00;99.90;;;;;;5110029;28;20491;-76
2022/01/30 01:07:22;;;;;;;16.10;3.90;;;7.00;99.90;;;;;;5109716;28;20449;-76
2022/01/30 01:09:58;;;;;;;16.37;4.73;;;7.00;99.90;;;;;;5109551;28;20531;-76
2022/01/30 01:23:25;;;;;;;19.97;3.73;;;6.90;99.90;;;;;;5110208;28;20514;-76
2022/01/30 01:25:52;;;;;;;14.97;3.90;;;6.90;99.90;;;;;;5109792;28;20450;-76
2022/01/30 01:28:18;;;;;;;10.27;4.80;;;6.90;99.90;;;;;;5109227;28;20499;-76
2022/01/30 01:30:45;;;;;;;12.40;3.17;;;6.90;99.90;;;;;;5103129;28;20439;-76
2022/01/30 01:33:14;;;;;;;19.00;4.73;;;6.90;99.90;;;;;;5105705;28;20552;-76
2022/01/30 01:35:41;;;;;;;22.10;4.47;;;6.90;99.90;;;;;;5108729;28;20458;-76
2022/01/30 01:38:11;;;;;;;20.30;4.17;;;6.90;99.90;;;;;;5108810;28;20450;-76
2022/01/30 01:40:37;;;;;;;14.13;4.80;;;6.90;99.90;;;;;;5109018;28;20478;-76
2022/01/30 01:43:04;;;;;;;10.57;3.90;;;6.90;99.90;;;;;;5108734;28;20509;-76
2022/01/30 01:45:35;;;;;;;18.10;4.40;;;6.90;99.90;;;;;;5108186;28;20800;-75
2022/01/30 01:48:08;;;;;;;15.63;4.13;;;6.90;99.90;;;;;;5108390;28;20885;-76
2022/01/30 01:50:43;;;;;;;12.47;4.53;;;6.90;99.90;;;;;;5108424;28;20445;-76
2022/01/30 01:53:12;;;;;;;20.67;4.50;;;6.90;99.90;;;;;;5108372;28;20536;-76
2022/01/30 01:55:40;;;;;;;22.30;4.13;;;6.90;99.90;;;;;;5107759;28;20449;-76
2022/01/30 01:58:07;;;;;;;13.10;5.20;;;6.90;99.90;;;;;;5108474;28;20454;-76
2022/01/30 02:00:34;;;;;;;21.57;4.40;;;6.90;99.90;;;;;;5108176;28;20499;-76
2022/01/30 02:03:01;;;;;;;17.77;3.33;;;6.80;99.90;;;;;;5108545;28;21029;-76
2022/01/30 02:05:30;;;;;;;13.47;3.70;;;6.80;99.90;;;;;;5109117;28;20453;-76
2022/01/30 02:10:52;;;;;;;16.03;3.30;;;6.80;99.90;;;;;;5107920;28;20445;-76
2022/01/30 02:24:50;;;;;;;15.67;3.83;;;6.80;99.90;;;;;;5094381;28;21026;-76
2022/01/30 02:27:21;;;;;;;16.07;4.17;;;6.80;99.90;;;;;;5094008;28;20454;-76
2022/01/30 02:29:48;;;;;;;15.57;3.83;;;6.70;99.90;;;;;;5085235;28;20457;-76
2022/01/30 02:32:16;;;;;;;12.90;4.73;;;6.70;99.90;;;;;;5091618;28;20475;-76
2022/01/30 02:34:42;;;;;;;19.00;4.23;;;6.70;99.90;;;;;;5093944;28;20465;-76
2022/01/30 02:37:11;;;;;;;21.63;4.27;;;6.70;99.90;;;;;;5093882;28;20455;-75
2022/01/30 02:39:38;;;;;;;22.90;5.20;;;6.60;99.90;;;;;;5093494;28;20451;-76
2022/01/30 02:42:06;;;;;;;15.73;4.57;;;6.60;99.90;;;;;;5093429;28;20509;-75
2022/01/30 02:44:39;;;;;;;12.73;3.23;;;6.60;99.90;;;;;;5094633;28;20455;-76
2022/01/30 02:47:21;;;;;;;22.43;4.10;;;6.50;99.90;;;;;;5092642;28;20482;-75
2022/01/30 02:50:08;;;;;;;11.57;3.63;;;6.50;99.90;;;;;;5093716;28;20447;-76
2022/01/30 02:52:37;;;;;;;19.70;4.80;;;6.40;99.90;;;;;;5093668;28;20470;-76
2022/01/30 02:55:05;;;;;;;20.83;3.83;;;6.40;99.90;;;;;;5093570;28;20530;-76
2022/01/30 02:57:33;;;;;;;13.30;3.67;;;6.30;99.90;;;;;;5093740;28;20438;-75
2022/01/30 03:00:00;;;;;;;17.10;3.70;;;6.30;99.90;;;;;;5093305;28;20451;-76
2022/01/30 03:02:26;;;;;;;23.77;4.40;;;6.20;99.90;;;;;;5092675;28;20490;-75
2022/01/30 03:04:53;;;;;;;15.80;3.73;;;6.20;99.90;;;;;;5094039;28;20446;-76
2022/01/30 03:07:20;;;;;;;16.00;3.67;;;6.20;99.90;;;;;;5093078;28;20463;-76
2022/01/30 03:09:46;;;;;;;14.30;3.40;;;6.20;99.90;;;;;;5093482;28;20477;-76
2022/01/30 03:12:13;;;;;;;18.27;3.70;;;6.20;99.90;;;;;;5093901;28;20516;-76
2022/01/30 03:14:42;;;;;;;16.40;3.90;;;6.20;99.90;;;;;;5093205;28;20455;-76
2022/01/30 03:17:09;;;;;;;29.27;4.70;;;6.20;99.90;;;;;;5093332;28;20466;-76
2022/01/30 03:19:35;;;;;;;22.70;3.90;;;6.10;99.90;;;;;;5093310;28;20865;-75
2022/01/30 03:22:02;;;;;;;22.03;3.73;;;6.10;99.90;;;;;;5095327;28;20483;-75
2022/01/30 03:24:34;;;;;;;18.03;3.83;;;6.10;99.90;;;;;;5096766;28;20482;-76
2022/01/30 03:27:01;;;;;;;14.93;4.30;;;6.10;99.90;;;;;;5097226;28;20454;-76
2022/01/30 03:29:28;;;;;;;17.33;4.13;;;6.10;99.90;;;;;;5089777;28;20452;-76
2022/01/30 03:31:56;;;;;;;21.23;4.67;;;6.00;99.90;;;;;;5092737;28;20447;-75
2022/01/30 03:34:22;;;;;;;21.03;5.27;;;6.00;99.90;;;;;;5093312;28;20503;-75
2022/01/30 03:36:49;;;;;;;26.13;4.57;;;6.00;99.90;;;;;;5092772;28;20507;-76
2022/01/30 03:39:16;;;;;;;10.13;4.03;;;6.00;99.90;;;;;;5092788;28;20480;-75
2022/01/30 03:41:45;;;;;;;17.47;3.80;;;6.00;99.90;;;;;;5092806;28;20474;-76
2022/01/30 03:44:11;;;;;;;30.60;5.60;;;6.00;99.90;;;;;;5092969;28;20451;-76
2022/01/30 03:46:38;;;;;;;26.47;4.47;;;5.90;99.90;;;;;;5090902;28;20508;-76
2022/01/30 03:49:06;;;;;;;23.37;4.17;;;5.90;99.90;;;;;;5092641;28;20447;-75
2022/01/30 03:51:33;;;;;;;21.63;4.40;;;5.90;99.90;;;;;;5092622;28;20504;-76
2022/01/30 03:53:59;;;;;;;19.80;4.20;;;5.90;99.90;;;;;;5092927;28;20471;-76
2022/01/30 03:56:26;;;;;;;13.97;4.93;;;5.90;99.90;;;;;;5092823;28;20504;-75
2022/01/30 03:58:53;;;;;;;26.37;4.87;;;5.80;99.90;;;;;;5092123;28;21016;-76
2022/01/30 04:01:19;;;;;;;23.50;4.67;;;5.80;99.90;;;;;;5092569;28;20486;-75
2022/01/30 04:03:46;;;;;;;32.17;4.67;;;5.80;99.90;;;;;;5092736;28;20470;-76
2022/01/30 04:06:14;;;;;;;18.73;4.77;;;5.80;99.90;;;;;;5092724;28;20978;-76
2022/01/30 04:08:41;;;;;;;16.10;4.17;;;5.80;99.90;;;;;;5092158;28;20450;-75
2022/01/30 04:11:08;;;;;;;22.63;3.90;;;5.70;99.90;;;;;;5093078;28;20447;-75
2022/01/30 04:13:36;;;;;;;21.03;5.53;;;5.70;99.90;;;;;;5092228;28;20466;-75
2022/01/30 04:16:03;;;;;;;20.73;4.27;;;5.70;99.90;;;;;;5092191;28;20454;-75
2022/01/30 04:18:29;;;;;;;25.00;4.93;;;5.70;99.90;;;;;;5092103;28;20458;-76
2022/01/30 04:20:56;;;;;;;22.23;4.43;;;5.70;99.90;;;;;;5087770;28;20454;-75
2022/01/30 04:23:24;;;;;;;16.80;4.33;;;5.80;99.90;;;;;;5092762;28;20470;-75
2022/01/30 04:25:51;;;;;;;19.57;4.80;;;5.80;99.90;;;;;;5092797;28;20878;-76
2022/01/30 04:28:19;;;;;;;11.03;4.30;;;5.80;99.90;;;;;;5093015;28;20455;-76
2022/01/30 04:30:47;;;;;;;19.40;4.03;;;5.80;99.90;;;;;;5089106;28;20538;-75
2022/01/30 04:33:14;;;;;;;24.60;5.70;;;5.80;99.90;;;;;;5092210;28;20982;-75
2022/01/30 04:35:41;;;;;;;24.00;4.47;;;5.80;99.90;;;;;;5092182;28;20451;-75
2022/01/30 04:38:20;;;;;;;25.50;5.20;;;5.80;99.90;;;;;;5092885;28;20442;-76
2022/01/30 04:52:24;;;;;;;18.30;4.53;;;5.70;99.90;;;;;;5091507;28;20438;-75
2022/01/30 04:57:53;;;;;;;27.73;4.70;;;5.60;99.90;;;;;;5091315;28;20519;-76
2022/01/30 05:00:32;;;;;;;15.27;4.20;;;5.60;99.90;;;;;;5091382;28;20466;-76
2022/01/30 05:03:07;;;;;;;22.73;4.50;;;5.60;99.90;;;;;;5090884;28;20473;-75
2022/01/30 05:08:22;;;;;;;14.30;3.80;;;5.60;99.90;;;;;;5086816;28;20511;-75
2022/01/30 05:10:48;;;;;;;27.10;5.10;;;5.60;99.90;;;;;;5091252;28;20522;-76
2022/01/30 05:13:21;;;;;;;36.17;4.80;;;5.50;99.90;;;;;;5091123;28;20475;-76
2022/01/30 05:15:48;;;;;;;16.73;4.60;;;5.50;99.90;;;;;;5083529;28;20454;-76
2022/01/30 05:18:18;;;;;;;35.23;6.73;;;5.50;99.90;;;;;;5090392;28;20950;-76
2022/01/30 05:20:46;;;;;;;25.43;4.93;;;5.50;99.90;;;;;;5091348;28;20442;-75
2022/01/30 05:23:13;;;;;;;25.93;5.10;;;5.50;99.90;;;;;;5090684;28;20495;-75
2022/01/30 05:25:40;;;;;;;19.87;4.73;;;5.50;99.90;;;;;;5091239;28;20511;-75
2022/01/30 05:28:08;;;;;;;26.73;5.80;;;5.50;99.90;;;;;;5091141;28;21128;-76
2022/01/30 05:30:38;;;;;;;17.27;4.37;;;5.50;99.90;;;;;;5085910;28;20488;-75
2022/01/30 05:33:05;;;;;;;24.00;5.17;;;5.50;99.90;;;;;;5090878;28;20470;-75
2022/01/30 05:35:32;;;;;;;13.53;4.40;;;5.50;99.90;;;;;;5091111;28;20515;-75
2022/01/30 05:37:59;;;;;;;22.93;4.90;;;5.50;99.90;;;;;;5091178;28;20508;-75
2022/01/30 05:40:27;;;;;;;25.57;4.90;;;5.50;99.90;;;;;;5090921;28;21017;-76
2022/01/30 05:42:54;;;;;;;19.43;4.17;;;5.50;99.90;;;;;;5091262;28;20493;-75
2022/01/30 05:45:28;;;;;;;22.30;3.90;;;5.50;99.90;;;;;;5091441;28;21000;-75
2022/01/30 05:48:00;;;;;;;22.90;6.40;;;5.50;99.90;;;;;;5093782;28;20463;-75
2022/01/30 05:50:27;;;;;;;16.50;4.27;;;5.50;99.90;;;;;;5095199;28;20454;-76
2022/01/30 05:52:54;;;;;;;17.17;4.33;;;5.50;99.90;;;;;;5095892;28;21051;-75
2022/01/30 05:55:20;;;;;;;20.00;4.10;;;5.50;99.90;;;;;;5094521;28;21003;-75
2022/01/30 05:57:47;;;;;;;11.70;4.53;;;5.50;99.90;;;;;;5095587;28;20452;-75
2022/01/30 06:00:15;;;;;;;17.83;4.70;;;5.50;99.90;;;;;;5094685;28;20579;-75
2022/01/30 06:02:42;;;;;;;25.40;4.70;;;5.50;99.90;;;;;;5095104;28;20486;-75
2022/01/30 06:05:13;;;;;;;19.77;4.20;;;5.50;99.90;;;;;;5095622;28;20974;-75
2022/01/30 06:07:47;;;;;;;21.83;4.23;;;5.40;99.90;;;;;;5095999;28;20500;-76
2022/01/30 06:10:14;;;;;;;16.63;4.20;;;5.40;99.90;;;;;;5095302;28;20454;-76
2022/01/30 06:12:40;;;;;;;13.90;3.87;;;5.40;99.90;;;;;;5095454;28;20519;-76
2022/01/30 06:15:08;;;;;;;14.80;4.10;;;5.40;99.90;;;;;;5094642;28;20450;-76
2022/01/30 06:17:35;;;;;;;20.63;4.00;;;5.40;99.90;;;;;;5093945;28;20828;-76
2022/01/30 06:20:02;;;;;;;13.50;3.80;;;5.30;99.90;;;;;;5094312;28;20451;-76
2022/01/30 06:22:30;;;;;;;12.50;3.93;;;5.30;99.90;;;;;;5094299;28;20536;-76
2022/01/30 06:24:56;;;;;;;16.20;6.10;;;5.30;99.90;;;;;;5094405;28;20500;-76
2022/01/30 06:27:23;;;;;;;18.53;4.60;;;5.20;99.90;;;;;;5094700;28;20480;-76
2022/01/30 06:29:50;;;;;;;15.30;4.40;;;5.20;99.90;;;;;;5093475;28;20466;-76
2022/01/30 06:32:17;;;;;;;15.47;3.67;;;5.10;99.90;;;;;;5094474;28;20467;-77
2022/01/30 06:34:43;;;;;;;19.90;3.87;;;5.10;99.90;;;;;;5094385;28;20451;-77
2022/01/30 06:37:10;;;;;;;21.33;5.07;;;5.00;99.90;;;;;;5095630;28;20508;-76
2022/01/30 06:39:38;;;;;;;20.20;4.47;;;5.00;99.90;;;;;;5094632;28;20450;-76
2022/01/30 06:42:07;;;;;;;19.90;4.53;;;5.00;99.90;;;;;;5088956;28;20911;-77
2022/01/30 06:44:33;;;;;;;17.03;5.33;;;5.10;99.90;;;;;;5094229;28;20800;-76
2022/01/30 06:47:00;;;;;;;17.83;4.27;;;5.00;99.90;;;;;;5094838;28;20931;-76
2022/01/30 06:49:27;;;;;;;13.00;3.80;;;5.10;99.90;;;;;;5094703;28;20463;-75
2022/01/30 06:51:53;;;;;;;19.13;4.23;;;5.10;99.90;;;;;;5095645;28;20454;-77
2022/01/30 06:54:20;;;;;;;13.07;3.90;;;5.10;99.90;;;;;;5095129;28;20446;-78
2022/01/30 06:56:48;;;;;;;22.57;4.30;;;5.10;99.90;;;;;;5094971;28;20811;-78
2022/01/30 06:59:15;;;;;;;15.70;3.73;;;5.10;99.90;;;;;;5094336;28;20784;-77
2022/01/30 07:01:42;;;;;;;18.53;4.07;;;5.10;99.90;;;;;;5094351;28;20467;-78
2022/01/30 07:04:08;;;;;;;23.77;4.43;;;5.10;99.90;;;;;;5094097;28;20458;-76
2022/01/30 07:06:35;;;;;;;21.70;4.60;;;5.10;99.90;;;;;;5093901;28;21011;-78
2022/01/30 07:09:01;;;;;;;11.97;3.90;;;5.20;99.90;;;;;;5093797;28;20447;-76
2022/01/30 07:11:28;;;;;;;15.47;4.17;;;5.10;99.90;;;;;;5093789;28;20454;-75
2022/01/30 07:13:57;;;;;;;20.27;4.20;;;5.10;99.90;;;;;;5094072;28;20493;-76
2022/01/30 07:16:24;;;;;;;14.23;4.33;;;5.10;99.90;;;;;;5093448;28;20605;-75
2022/01/30 07:18:51;;;;;;;14.10;3.90;;;5.10;99.90;;;;;;5093797;28;20454;-77
2022/01/30 07:21:18;;;;;;;13.33;3.60;;;5.10;99.90;;;;;;5093536;28;20459;-76
2022/01/30 07:23:44;;;;;;;26.83;4.57;;;5.10;99.90;;;;;;5092418;28;20494;-75
2022/01/30 07:26:11;;;;;;;20.07;4.53;;;5.10;99.90;;;;;;5093081;28;20451;-76
2022/01/30 07:28:38;;;;;;;18.97;4.57;;;5.10;99.90;;;;;;5092901;28;20516;-75
2022/01/30 07:31:06;;;;;;;18.07;4.13;;;5.10;99.90;;;;;;5090175;28;20451;-74
2022/01/30 07:33:33;;;;;;;18.27;4.50;;;5.10;99.90;;;;;;5093138;28;20462;-74
2022/01/30 07:36:00;;;;;;;13.50;4.53;;;5.10;99.90;;;;;;5082962;28;20454;-74
2022/01/30 07:38:27;;;;;;;17.03;4.00;;;5.10;99.90;;;;;;5085414;28;20828;-75
2022/01/30 07:40:54;;;;;;;15.23;3.83;;;5.10;99.90;;;;;;5086984;28;20455;-75
2022/01/30 07:43:21;;;;;;;12.83;4.10;;;5.10;99.90;;;;;;5086563;28;21052;-75
2022/01/30 07:45:48;;;;;;;19.00;4.00;;;5.10;99.90;;;;;;5085561;28;20454;-75
2022/01/30 07:48:16;;;;;;;17.80;3.80;;;5.10;99.90;;;;;;5074602;28;20460;-76
2022/01/30 07:50:42;;;;;;;15.63;4.43;;;5.10;99.90;;;;;;5085172;28;20450;-75
2022/01/30 07:53:09;;;;;;;16.47;3.40;;;5.10;99.90;;;;;;5081144;28;20554;-74
2022/01/30 07:55:36;;;;;;;15.97;3.50;;;5.10;99.90;;;;;;5088662;28;20451;-74
2022/01/30 07:58:03;;;;;;;12.23;4.43;;;5.20;99.90;;;;;;5087446;28;20446;-74
2022/01/30 08:00:29;;;;;;;11.83;4.50;;;5.20;99.90;;;;;;5085902;28;20462;-74
2022/01/30 08:02:56;;;;;;;15.80;3.87;;;5.20;99.90;;;;;;5082022;28;20482;-75
2022/01/30 08:05:24;;;;;;;8.83;3.57;;;5.30;99.90;;;;;;5080250;28;20497;-75
2022/01/30 08:07:51;;;;;;;16.47;3.93;;;5.30;99.90;;;;;;5076591;28;20455;-75
2022/01/30 08:10:17;;;;;;;14.37;4.37;;;5.40;99.90;;;;;;5080658;28;20450;-75
2022/01/30 08:12:44;;;;;;;17.83;4.90;;;5.40;99.90;;;;;;5091767;28;20520;-75
2022/01/30 08:15:11;;;;;;;12.93;3.97;;;5.50;99.90;;;;;;5092083;28;21042;-74
2022/01/30 08:17:39;;;;;;;11.63;4.70;;;5.50;99.90;;;;;;5092128;28;20451;-73
2022/01/30 08:20:07;;;;;;;20.30;4.57;;;5.70;99.90;;;;;;5091034;28;20466;-75
2022/01/30 08:22:47;;;;;;;18.97;3.93;;;5.80;99.90;;;;;;5080841;28;20564;-73
2022/01/30 08:25:14;;;;;;;12.43;3.63;;;6.30;99.90;;;;;;5090605;28;21001;-73
2022/01/30 08:27:41;;;;;;;28.23;5.23;;;6.70;99.90;;;;;;5092692;28;20447;-74
2022/01/30 08:30:09;;;;;;;23.17;4.43;;;7.10;99.90;;;;;;5091709;28;20458;-75
2022/01/30 08:32:39;;;;;;;25.60;4.43;;;7.00;99.90;;;;;;5092837;28;20467;-75
2022/01/30 08:35:07;;;;;;;13.07;3.80;;;6.80;99.90;;;;;;5092704;28;20476;-74
2022/01/30 08:37:35;;;;;;;14.67;3.90;;;6.70;99.90;;;;;;5089915;28;20451;-75
2022/01/30 08:40:04;;;;;;;16.27;4.40;;;7.00;99.90;;;;;;5091758;28;20494;-75
2022/01/30 08:42:31;;;;;;;16.87;5.50;;;6.90;99.90;;;;;;5092986;28;20463;-75
2022/01/30 08:44:58;;;;;;;15.43;4.00;;;6.70;99.90;;;;;;5092518;28;20878;-75
2022/01/30 08:47:24;;;;;;;12.23;4.10;;;6.40;99.90;;;;;;5089391;28;20821;-75
2022/01/30 08:49:51;;;;;;;17.00;4.57;;;6.30;99.90;;;;;;5092483;28;20455;-74
2022/01/30 08:52:19;;;;;;;17.70;4.80;;;6.40;99.90;;;;;;5092207;28;20504;-75
2022/01/30 08:54:46;;;;;;;17.00;4.20;;;6.50;99.90;;;;;;5092120;28;20978;-75
2022/01/30 08:57:14;;;;;;;10.03;3.97;;;6.50;99.90;;;;;;5091200;28;20470;-74
2022/01/30 08:59:41;;;;;;;12.07;4.07;;;6.30;99.90;;;;;;5075652;28;20516;-74
2022/01/30 09:02:08;;;;;;;11.77;4.40;;;6.20;99.90;;;;;;5091489;28;20505;-74
2022/01/30 09:04:35;;;;;;;19.63;5.60;;;6.20;99.90;;;;;;5091141;28;20531;-75
2022/01/30 09:07:02;;;;;;;17.00;5.40;;;6.30;99.90;;;;;;5090948;28;20864;-76
2022/01/30 09:09:30;;;;;;;21.33;4.43;;;6.20;99.90;;;;;;5092077;28;20447;-74
2022/01/30 09:11:57;;;;;;;16.43;4.57;;;6.20;99.90;;;;;;5091528;28;20454;-74
2022/01/30 09:14:26;;;;;;;16.93;3.87;;;6.20;99.90;;;;;;5092414;28;20451;-77
2022/01/30 09:16:53;;;;;;;17.30;4.73;;;6.20;99.90;;;;;;5092098;28;20450;-74
2022/01/30 09:19:19;;;;;;;17.10;5.20;;;6.20;99.90;;;;;;5091370;28;20458;-75
2022/01/30 09:21:46;;;;;;;38.87;4.90;;;6.20;99.90;;;;;;5071467;28;20451;-74
2022/01/30 09:24:13;;;;;;;21.43;5.40;;;6.10;99.90;;;;;;5092259;28;20565;-74
2022/01/30 09:26:40;;;;;;;30.87;4.73;;;6.10;99.90;;;;;;5094720;28;20450;-75
2022/01/30 09:29:07;;;;;;;27.27;4.80;;;6.10;99.90;;;;;;5091089;28;20451;-74
2022/01/30 09:31:35;;;;;;;21.53;5.13;;;6.10;99.90;;;;;;5093378;28;20458;-75
2022/01/30 09:34:01;;;;;;;30.83;5.20;;;6.10;99.90;;;;;;5094334;28;20467;-75
2022/01/30 09:36:28;;;;;;;27.23;5.00;;;6.10;99.90;;;;;;5093884;28;20477;-73
2022/01/30 09:38:55;;;;;;;18.13;5.70;;;6.10;99.90;;;;;;5090976;28;20479;-75
2022/01/30 09:41:24;;;;;;;19.43;4.57;;;6.10;99.90;;;;;;5092005;28;20508;-74
2022/01/30 09:43:51;;;;;;;26.33;4.57;;;6.20;99.90;;;;;;5093942;28;20827;-74
2022/01/30 09:46:18;;;;;;;17.00;4.40;;;6.30;99.90;;;;;;5093413;28;21170;-75
2022/01/30 09:48:47;;;;;;;20.93;5.13;;;6.50;99.90;;;;;;5094723;28;20851;-76
2022/01/30 09:51:14;;;;;;;21.07;5.37;;;6.80;99.90;;;;;;5094837;28;20954;-76
2022/01/30 09:53:40;;;;;;;24.43;5.63;;;7.00;99.90;;;;;;5070649;28;20864;-76
2022/01/30 09:56:07;;;;;;;22.77;4.80;;;7.20;99.90;;;;;;5053900;28;20514;-77
2022/01/30 09:58:34;;;;;;;28.10;5.67;;;7.30;99.90;;;;;;5040584;28;20460;-76
2022/01/30 10:01:00;;;;;;;16.60;5.43;;;7.20;99.90;;;;;;5053241;28;20464;-76
2022/01/30 10:03:27;;;;;;;24.57;5.07;;;7.10;99.90;;;;;;5054531;28;21052;-76
2022/01/30 10:06:10;;;;;;;17.73;5.13;;;7.00;99.90;;;;;;5054247;28;20543;-77
2022/01/30 10:08:42;;;;;;;21.60;4.73;;;7.10;99.90;;;;;;5054051;28;20498;-74
2022/01/30 10:11:27;;;;;;;28.90;5.67;;;7.10;99.90;;;;;;5053984;28;20456;-77
2022/01/30 10:14:04;;;;;;;14.07;4.57;;;7.40;99.90;;;;;;5052548;28;20494;-77
2022/01/30 10:16:35;;;;;;;15.47;4.83;;;7.40;99.90;;;;;;5052893;28;20448;-77
2022/01/30 10:19:10;;;;;;;26.50;4.67;;;7.50;99.90;;;;;;5051908;28;20448;-77
2022/01/30 10:21:38;;;;;;;24.10;4.17;;;7.40;99.90;;;;;;5050486;28;20468;-74
2022/01/30 10:24:22;;;;;;;23.90;5.50;;;7.40;99.90;;;;;;5053046;28;20480;-76
2022/01/30 10:26:49;;;;;;;25.57;5.10;;;7.30;99.90;;;;;;5053755;28;20471;-77
2022/01/30 10:29:20;;;;;;;16.97;4.43;;;7.30;99.90;;;;;;5053473;28;20518;-78
2022/01/30 10:32:01;;;;;;;22.57;4.70;;;7.20;99.90;;;;;;5053320;28;20452;-75
2022/01/30 10:34:28;;;;;;;26.53;4.67;;;7.20;99.90;;;;;;5053448;28;20518;-77
2022/01/30 10:37:30;;;;;;;17.10;4.27;;;6.90;99.90;;;;;;5053756;28;20448;-77
2022/01/30 10:40:08;;;;;;;32.93;6.10;;;6.80;99.90;;;;;;4991192;28;20489;-77
2022/01/30 10:42:41;;;;;;;14.87;4.60;;;6.70;99.90;;;;;;4990303;28;20487;-77
2022/01/30 10:45:13;;;;;;;25.57;5.20;;;6.60;99.90;;;;;;5023188;28;20480;-76
2022/01/30 10:47:41;;;;;;;17.80;4.90;;;6.50;99.90;;;;;;5046942;28;20453;-77
2022/01/30 10:50:18;;;;;;;19.03;5.30;;;6.50;99.90;;;;;;5045841;28;20455;-77
2022/01/30 10:52:51;;;;;;;25.60;5.10;;;6.40;99.90;;;;;;5052430;28;20476;-75
2022/01/30 10:55:31;;;;;;;18.30;4.40;;;6.40;99.90;;;;;;5052297;28;20445;-76
2022/01/30 10:57:59;;;;;;;21.80;4.87;;;6.40;99.90;;;;;;5052098;28;20448;-74
2022/01/30 11:00:37;;;;;;;23.03;5.10;;;6.40;99.90;;;;;;5051433;28;20457;-75
2022/01/30 11:03:04;;;;;;;26.77;5.00;;;6.40;99.90;;;;;;5048751;28;20839;-76
2022/01/30 11:05:33;;;;;;;21.97;5.17;;;6.40;99.90;;;;;;5052292;28;20498;-73
2022/01/30 11:08:01;;;;;;;15.57;4.40;;;6.50;99.90;;;;;;5052349;28;20453;-72
2022/01/30 11:10:30;;;;;;;22.70;5.70;;;6.50;99.90;;;;;;5051739;28;21049;-75
2022/01/30 11:13:08;;;;;;;24.53;5.00;;;6.50;99.90;;;;;;5051245;28;21004;-76
2022/01/30 11:15:37;;;;;;;28.47;4.90;;;6.60;99.90;;;;;;5051517;28;20479;-73
2022/01/30 11:18:05;;;;;;;24.17;4.50;;;6.60;99.90;;;;;;5052093;28;20457;-74
2022/01/30 11:20:32;;;;;;;20.13;5.50;;;6.60;99.90;;;;;;5051295;28;20452;-75
2022/01/30 11:23:03;;;;;;;32.90;5.50;;;6.50;99.90;;;;;;5050866;28;20476;-75
2022/01/30 11:25:33;;;;;;;30.30;4.70;;;6.60;99.90;;;;;;5052196;28;20455;-75
2022/01/30 11:28:03;;;;;;;20.73;4.40;;;6.60;99.90;;;;;;5051618;28;20452;-76
2022/01/30 11:30:32;;;;;;;31.30;6.30;;;6.60;99.90;;;;;;5048933;28;20464;-76
2022/01/30 11:32:59;;;;;;;26.00;6.80;;;6.60;99.90;;;;;;5050179;28;20522;-75
2022/01/30 11:35:26;;;;;;;32.20;5.07;;;6.50;99.90;;;;;;5043892;28;20506;-75
2022/01/30 11:37:53;;;;;;;28.17;4.13;;;6.50;99.90;;;;;;5051236;28;20510;-75
2022/01/30 11:40:22;;;;;;;27.57;5.93;;;6.40;99.90;;;;;;5051551;28;20460;-76
2022/01/30 11:42:50;;;;;;;22.37;5.57;;;6.40;99.90;;;;;;5051185;28;20476;-75
2022/01/30 11:45:20;;;;;;;26.60;6.27;;;6.40;99.90;;;;;;5044840;28;20503;-75
2022/01/30 11:47:49;;;;;;;17.63;4.90;;;6.40;99.90;;;;;;5046673;28;20448;-77
2022/01/30 11:50:20;;;;;;;35.63;5.73;;;6.50;99.90;;;;;;5050011;28;20463;-76
2022/01/30 11:53:01;;;;;;;22.10;4.37;;;6.50;99.90;;;;;;5052680;28;20468;-77
2022/01/30 11:55:48;;;;;;;21.53;5.57;;;6.50;99.90;;;;;;5050376;28;20452;-76
2022/01/30 11:58:46;;;;;;;26.57;5.03;;;6.50;99.90;;;;;;5050895;28;20460;-75
2022/01/30 12:01:35;;;;;;;39.67;5.70;;;6.60;99.90;;;;;;5052433;28;20547;-77
2022/01/30 12:04:04;;;;;;;22.40;4.63;;;6.40;99.90;;;;;;5051832;28;20892;-77
2022/01/30 12:06:33;;;;;;;22.50;5.40;;;6.40;99.90;;;;;;5053963;28;20461;-78
2022/01/30 12:09:01;;;;;;;19.90;4.77;;;6.40;99.90;;;;;;5053771;28;20457;-77
2022/01/30 12:12:05;;;;;;;24.20;5.60;;;6.50;99.90;;;;;;5053419;28;20448;-77
2022/01/30 12:14:56;;;;;;;23.50;5.73;;;6.50;99.90;;;;;;5032157;22;20494;-70
2022/01/30 12:17:58;;;;;;;20.33;4.53;;;6.60;99.90;;;;;;5009002;28;20509;-70
2022/01/30 12:20:25;;;;;;;34.80;6.30;;;6.60;99.90;;;;;;5006517;28;20525;-70
2022/01/30 12:22:53;;;;;;;27.63;5.60;;;6.50;99.90;;;;;;5008339;28;20451;-70
2022/01/30 12:25:37;;;;;;;34.13;5.90;;;6.60;99.90;;;;;;4983007;28;20490;-70
2022/01/30 12:28:14;;;;;;;28.23;5.87;;;6.70;99.90;;;;;;4990709;28;20459;-72
2022/01/30 12:30:50;;;;;;;28.60;5.20;;;6.80;99.90;;;;;;4983114;28;20563;-70
2022/01/30 12:33:48;;;;;;;22.20;4.70;;;6.80;99.90;;;;;;4989008;28;20479;-70
2022/01/30 12:36:22;;;;;;;28.47;5.33;;;6.80;99.90;;;;;;4990590;28;20443;-70
2022/01/30 12:39:02;;;;;;;19.53;5.30;;;6.80;99.90;;;;;;4988957;28;20451;-71
2022/01/30 12:41:30;;;;;;;20.40;5.43;;;6.80;99.90;;;;;;4988867;28;20443;-71
2022/01/30 12:44:01;;;;;;;26.07;4.80;;;6.90;99.90;;;;;;4984491;28;20503;-72
2022/01/30 12:46:36;;;;;;;26.33;5.57;;;6.90;99.90;;;;;;4989510;28;20462;-70
2022/01/30 12:49:09;;;;;;;18.43;4.60;;;6.90;99.90;;;;;;4988988;28;20951;-69
2022/01/30 12:51:37;;;;;;;30.30;6.03;;;6.90;99.90;;;;;;4990671;28;20451;-71
2022/01/30 12:54:05;;;;;;;19.23;5.57;;;7.00;99.90;;;;;;4978487;28;20471;-70
2022/01/30 12:56:32;;;;;;;18.67;5.50;;;7.10;99.90;;;;;;4990540;28;20497;-70
2022/01/30 12:59:06;;;;;;;26.58;5.63;;;7.30;99.90;;;;;;4989357;28;20452;-72
2022/01/30 13:01:33;;;;;;;32.95;5.90;;;7.40;99.90;;;;;;4989400;28;20813;-70
2022/01/30 13:04:09;;;;;;;22.52;4.90;;;7.40;99.90;;;;;;4988093;28;20448;-70
2022/01/30 13:06:37;;;;;;;30.47;5.80;;;7.40;99.90;;;;;;4989077;28;20457;-72
2022/01/30 13:09:05;;;;;;;25.57;6.23;;;7.50;99.90;;;;;;4989380;28;20890;-71
2022/01/30 13:11:32;;;;;;;28.33;5.00;;;7.60;99.90;;;;;;4988008;28;20865;-72
2022/01/30 13:14:03;;;;;;;26.75;5.80;;;7.60;99.90;;;;;;4984181;28;20446;-70
2022/01/30 13:16:40;;;;;;;36.63;6.50;;;7.50;99.90;;;;;;4988274;28;20503;-71
2022/01/30 13:19:09;;;;;;;22.73;4.90;;;7.40;99.90;;;;;;4988684;28;21131;-73
2022/01/30 13:21:37;;;;;;;32.47;5.95;;;7.30;99.90;;;;;;4990413;28;20444;-71
2022/01/30 13:24:05;;;;;;;30.47;5.10;;;7.30;99.90;;;;;;4989903;28;20228;-70
2022/01/30 13:26:42;;;;;;;24.40;4.90;;;7.50;99.90;;;;;;4986778;28;20487;-73
2022/01/30 13:29:14;;;;;;;15.93;5.37;;;7.50;99.90;;;;;;4985440;28;20455;-72
2022/01/30 13:31:41;;;;;;;28.20;5.10;;;7.40;99.90;;;;;;4984757;28;20447;-72
2022/01/30 13:34:17;;;;;;;30.27;5.43;;;7.40;99.90;;;;;;4988701;28;20470;-70
2022/01/30 13:36:52;;;;;;;24.88;5.10;;;7.30;99.90;;;;;;4985264;28;20448;-70
2022/01/30 13:39:25;;;;;;;28.17;5.97;;;7.30;99.90;;;;;;4989768;28;20227;-72
2022/01/30 13:42:02;;;;;;;20.97;4.70;;;7.20;99.90;;;;;;4991632;28;20867;-71
2022/01/30 13:44:49;;;;;;;27.30;5.82;;;7.20;99.90;;;;;;4990523;28;20460;-70